sensor_id;sensor_type;location;lat;lon;timestamp;pressure;altitude;pressure_sealevel;temperature
37414;BMP280;23279;46.472;30.760;2023-07-16T00:04:21;77563.88;;;-146.33
37414;BMP280;23279;46.472;30.760;2023-07-16T00:06:47;77580.16;;;-146.33
37414;BMP280;23279;46.472;30.760;2023-07-16T00:09:12;77616.78;;;-146.33
37414;BMP280;23279;46.472;30.760;2023-07-16T00:11:38;77606.63;;;-146.33
37414;BMP280;23279;46.472;30.760;2023-07-16T00:14:03;77620.84;;;-146.33
37414;BMP280;23279;46.472;30.760;2023-07-16T00:16:29;77665.63;;;-146.33
37414;BMP280;23279;46.472;30.760;2023-07-16T00:18:54;77681.88;;;-146.33
37414;BMP280;23279;46.472;30.760;2023-07-16T00:21:20;77673.75;;;-146.33
37414;BMP280;23279;46.472;30.760;2023-07-16T00:23:45;77683.94;;;-146.33
37414;BMP280;23279;46.472;30.760;2023-07-16T00:26:12;77657.47;;;-146.33
37414;BMP280;23279;46.472;30.760;2023-07-16T00:28:37;77718.53;;;-146.33
37414;BMP280;23279;46.472;30.760;2023-07-16T00:31:03;77712.41;;;-146.33
37414;BMP280;23279;46.472;30.760;2023-07-16T00:33:28;77665.63;;;-146.33
37414;BMP280;23279;46.472;30.760;2023-07-16T00:35:54;77665.63;;;-146.33
37414;BMP280;23279;46.472;30.760;2023-07-16T00:38:19;77651.38;;;-146.33
37414;BMP280;23279;46.472;30.760;2023-07-16T00:40:46;77661.53;;;-146.33
37414;BMP280;23279;46.472;30.760;2023-07-16T00:43:11;77696.13;;;-146.33
37414;BMP280;23279;46.472;30.760;2023-07-16T00:45:38;77677.81;;;-146.33
37414;BMP280;23279;46.472;30.760;2023-07-16T00:48:05;77679.84;;;-146.33
37414;BMP280;23279;46.472;30.760;2023-07-16T00:50:31;77685.97;;;-146.33
37414;BMP280;23279;46.472;30.760;2023-07-16T00:53:00;77698.16;;;-146.33
37414;BMP280;23279;46.472;30.760;2023-07-16T00:55:28;77704.28;;;-146.33
37414;BMP280;23279;46.472;30.760;2023-07-16T00:57:57;77677.81;;;-146.33
37414;BMP280;23279;46.472;30.760;2023-07-16T01:00:25;77673.75;;;-146.33
37414;BMP280;23279;46.472;30.760;2023-07-16T01:02:51;77681.88;;;-146.33
37414;BMP280;23279;46.472;30.760;2023-07-16T01:05:16;77659.50;;;-146.33
37414;BMP280;23279;46.472;30.760;2023-07-16T01:07:49;77667.66;;;-146.33
37414;BMP280;23279;46.472;30.760;2023-07-16T01:10:20;77661.53;;;-146.33
37414;BMP280;23279;46.472;30.760;2023-07-16T01:12:47;77685.97;;;-146.33
37414;BMP280;23279;46.472;30.760;2023-07-16T01:15:13;77673.75;;;-146.33
37414;BMP280;23279;46.472;30.760;2023-07-16T01:17:39;77669.69;;;-146.33
37414;BMP280;23279;46.472;30.760;2023-07-16T01:20:05;77661.53;;;-146.33
37414;BMP280;23279;46.472;30.760;2023-07-16T01:25:14;77702.25;;;-146.33
37414;BMP280;23279;46.472;30.760;2023-07-16T01:30:22;77730.72;;;-146.33
37414;BMP280;23279;46.472;30.760;2023-07-16T01:32:49;77744.97;;;-146.33
37414;BMP280;23279;46.472;30.760;2023-07-16T01:35:15;77736.81;;;-146.33
37414;BMP280;23279;46.472;30.760;2023-07-16T01:37:41;77749.03;;;-146.33
37414;BMP280;23279;46.472;30.760;2023-07-16T01:40:08;77738.88;;;-146.33
37414;BMP280;23279;46.472;30.760;2023-07-16T01:42:37;77749.03;;;-146.33
37414;BMP280;23279;46.472;30.760;2023-07-16T01:45:03;77742.94;;;-146.33
37414;BMP280;23279;46.472;30.760;2023-07-16T01:49:54;77755.16;;;-146.33
37414;BMP280;23279;46.472;30.760;2023-07-16T01:52:20;77742.94;;;-146.33
37414;BMP280;23279;46.472;30.760;2023-07-16T01:54:45;77759.22;;;-146.33
37414;BMP280;23279;46.472;30.760;2023-07-16T01:57:11;77769.38;;;-146.33
37414;BMP280;23279;46.472;30.760;2023-07-16T01:59:36;77779.56;;;-146.33
37414;BMP280;23279;46.472;30.760;2023-07-16T02:02:02;77795.84;;;-146.33
37414;BMP280;23279;46.472;30.760;2023-07-16T02:04:27;77789.72;;;-146.33
37414;BMP280;23279;46.472;30.760;2023-07-16T02:06:53;77801.94;;;-146.33
37414;BMP280;23279;46.472;30.760;2023-07-16T02:09:18;77801.94;;;-146.33
37414;BMP280;23279;46.472;30.760;2023-07-16T02:11:43;77822.28;;;-146.33
37414;BMP280;23279;46.472;30.760;2023-07-16T02:14:09;77828.41;;;-146.33
37414;BMP280;23279;46.472;30.760;2023-07-16T02:16:34;77820.25;;;-146.33
37414;BMP280;23279;46.472;30.760;2023-07-16T02:19:00;77812.13;;;-146.33
37414;BMP280;23279;46.472;30.760;2023-07-16T02:21:25;77801.94;;;-146.33
37414;BMP280;23279;46.472;30.760;2023-07-16T02:23:50;77808.03;;;-146.33
37414;BMP280;23279;46.472;30.760;2023-07-16T02:26:16;77812.13;;;-146.33
37414;BMP280;23279;46.472;30.760;2023-07-16T02:28:41;77812.13;;;-146.33
37414;BMP280;23279;46.472;30.760;2023-07-16T02:31:06;77836.53;;;-146.33
37414;BMP280;23279;46.472;30.760;2023-07-16T02:33:32;77824.31;;;-146.33
37414;BMP280;23279;46.472;30.760;2023-07-16T02:35:57;77826.34;;;-146.33
37414;BMP280;23279;46.472;30.760;2023-07-16T02:38:23;77816.19;;;-146.33
37414;BMP280;23279;46.472;30.760;2023-07-16T02:40:48;77816.19;;;-146.33
37414;BMP280;23279;46.472;30.760;2023-07-16T02:43:14;77812.13;;;-146.33
37414;BMP280;23279;46.472;30.760;2023-07-16T02:45:40;77791.78;;;-146.33
37414;BMP280;23279;46.472;30.760;2023-07-16T02:48:06;77787.69;;;-146.33
37414;BMP280;23279;46.472;30.760;2023-07-16T02:50:37;77777.53;;;-146.33
37414;BMP280;23279;46.472;30.760;2023-07-16T02:53:04;77771.41;;;-146.33
37414;BMP280;23279;46.472;30.760;2023-07-16T02:55:30;77785.66;;;-146.33
37414;BMP280;23279;46.472;30.760;2023-07-16T02:57:55;77791.78;;;-146.33
37414;BMP280;23279;46.472;30.760;2023-07-16T03:00:21;77818.22;;;-146.33
37414;BMP280;23279;46.472;30.760;2023-07-16T03:02:47;77803.97;;;-146.33
37414;BMP280;23279;46.472;30.760;2023-07-16T03:05:14;77799.91;;;-146.33
37414;BMP280;23279;46.472;30.760;2023-07-16T03:07:40;77820.25;;;-146.33
37414;BMP280;23279;46.472;30.760;2023-07-16T03:10:05;77806.00;;;-146.33
37414;BMP280;23279;46.472;30.760;2023-07-16T03:12:31;77832.47;;;-146.33
37414;BMP280;23279;46.472;30.760;2023-07-16T03:14:56;77844.66;;;-146.33
37414;BMP280;23279;46.472;30.760;2023-07-16T03:17:22;77842.63;;;-146.33
37414;BMP280;23279;46.472;30.760;2023-07-16T03:19:48;77828.41;;;-146.33
37414;BMP280;23279;46.472;30.760;2023-07-16T03:22:13;77816.19;;;-146.33
37414;BMP280;23279;46.472;30.760;2023-07-16T03:24:39;77814.16;;;-146.33
37414;BMP280;23279;46.472;30.760;2023-07-16T03:27:06;77795.84;;;-146.33
37414;BMP280;23279;46.472;30.760;2023-07-16T03:29:32;77787.69;;;-146.33
37414;BMP280;23279;46.472;30.760;2023-07-16T03:31:58;77812.13;;;-146.33
37414;BMP280;23279;46.472;30.760;2023-07-16T03:34:23;77803.97;;;-146.33
37414;BMP280;23279;46.472;30.760;2023-07-16T03:36:49;77785.66;;;-146.33
37414;BMP280;23279;46.472;30.760;2023-07-16T03:39:14;77779.56;;;-146.33
37414;BMP280;23279;46.472;30.760;2023-07-16T03:41:39;77771.41;;;-146.33
37414;BMP280;23279;46.472;30.760;2023-07-16T03:44:05;77799.91;;;-146.33
37414;BMP280;23279;46.472;30.760;2023-07-16T03:46:30;77771.41;;;-146.33
37414;BMP280;23279;46.472;30.760;2023-07-16T03:48:56;77765.31;;;-146.33
37414;BMP280;23279;46.472;30.760;2023-07-16T03:51:21;77769.38;;;-146.33
37414;BMP280;23279;46.472;30.760;2023-07-16T03:53:47;77749.03;;;-146.33
37414;BMP280;23279;46.472;30.760;2023-07-16T03:56:12;77763.28;;;-146.33
37414;BMP280;23279;46.472;30.760;2023-07-16T03:58:37;77775.50;;;-146.33
37414;BMP280;23279;46.472;30.760;2023-07-16T04:01:03;77728.69;;;-146.33
37414;BMP280;23279;46.472;30.760;2023-07-16T04:03:28;77728.69;;;-146.33
37414;BMP280;23279;46.472;30.760;2023-07-16T04:06:07;77728.69;;;-146.33
37414;BMP280;23279;46.472;30.760;2023-07-16T04:08:34;77724.63;;;-146.33
37414;BMP280;23279;46.472;30.760;2023-07-16T04:11:00;77706.31;;;-146.33
37414;BMP280;23279;46.472;30.760;2023-07-16T04:13:25;77692.06;;;-146.33
37414;BMP280;23279;46.472;30.760;2023-07-16T04:15:51;77671.72;;;-146.33
37414;BMP280;23279;46.472;30.760;2023-07-16T04:18:18;77653.41;;;-146.33
37414;BMP280;23279;46.472;30.760;2023-07-16T04:20:43;77643.22;;;-146.33
37414;BMP280;23279;46.472;30.760;2023-07-16T04:23:09;77649.34;;;-146.33
37414;BMP280;23279;46.472;30.760;2023-07-16T04:25:34;77669.69;;;-146.33
37414;BMP280;23279;46.472;30.760;2023-07-16T04:28:00;77661.53;;;-146.33
37414;BMP280;23279;46.472;30.760;2023-07-16T04:30:25;77653.41;;;-146.33
37414;BMP280;23279;46.472;30.760;2023-07-16T04:32:50;77663.59;;;-146.33
37414;BMP280;23279;46.472;30.760;2023-07-16T04:35:16;77649.34;;;-146.33
37414;BMP280;23279;46.472;30.760;2023-07-16T04:37:41;77616.78;;;-146.33
37414;BMP280;23279;46.472;30.760;2023-07-16T04:40:07;77620.84;;;-146.33
37414;BMP280;23279;46.472;30.760;2023-07-16T04:42:34;77596.44;;;-146.33
37414;BMP280;23279;46.472;30.760;2023-07-16T04:44:59;77594.41;;;-146.33
37414;BMP280;23279;46.472;30.760;2023-07-16T04:47:25;77574.06;;;-146.33
37414;BMP280;23279;46.472;30.760;2023-07-16T04:49:50;77555.75;;;-146.33
37414;BMP280;23279;46.472;30.760;2023-07-16T04:52:15;77506.91;;;-146.33
37414;BMP280;23279;46.472;30.760;2023-07-16T04:54:41;77527.25;;;-146.33
37414;BMP280;23279;46.472;30.760;2023-07-16T04:57:07;77537.44;;;-146.33
37414;BMP280;23279;46.472;30.760;2023-07-16T04:59:33;77523.19;;;-146.33
37414;BMP280;23279;46.472;30.760;2023-07-16T05:01:58;77500.81;;;-146.33
37414;BMP280;23279;46.472;30.760;2023-07-16T05:04:24;77466.22;;;-146.33
37414;BMP280;23279;46.472;30.760;2023-07-16T05:06:49;77478.44;;;-146.33
37414;BMP280;23279;46.472;30.760;2023-07-16T05:09:15;77478.44;;;-146.33
37414;BMP280;23279;46.472;30.760;2023-07-16T05:11:40;77449.94;;;-146.33
37414;BMP280;23279;46.472;30.760;2023-07-16T05:14:05;77462.16;;;-146.33
37414;BMP280;23279;46.472;30.760;2023-07-16T05:16:33;77462.16;;;-146.33
37414;BMP280;23279;46.472;30.760;2023-07-16T05:18:59;77458.09;;;-146.33
37414;BMP280;23279;46.472;30.760;2023-07-16T05:21:24;77449.94;;;-146.33
37414;BMP280;23279;46.472;30.760;2023-07-16T05:23:49;77429.59;;;-146.33
37414;BMP280;23279;46.472;30.760;2023-07-16T05:26:15;77384.84;;;-146.33
37414;BMP280;23279;46.472;30.760;2023-07-16T05:28:40;77368.56;;;-146.33
37414;BMP280;23279;46.472;30.760;2023-07-16T05:31:06;77346.19;;;-146.33
37414;BMP280;23279;46.472;30.760;2023-07-16T05:33:31;77307.53;;;-146.33
37414;BMP280;23279;46.472;30.760;2023-07-16T05:35:57;77293.28;;;-146.33
37414;BMP280;23279;46.472;30.760;2023-07-16T05:38:22;77289.22;;;-146.33
37414;BMP280;23279;46.472;30.760;2023-07-16T05:40:48;77289.22;;;-146.33
37414;BMP280;23279;46.472;30.760;2023-07-16T05:43:13;77254.66;;;-146.33
37414;BMP280;23279;46.472;30.760;2023-07-16T05:45:40;77262.78;;;-146.33
37414;BMP280;23279;46.472;30.760;2023-07-16T05:48:05;77201.75;;;-146.33
37414;BMP280;23279;46.472;30.760;2023-07-16T05:50:30;77222.09;;;-146.33
37414;BMP280;23279;46.472;30.760;2023-07-16T05:52:56;77169.19;;;-146.33
37414;BMP280;23279;46.472;30.760;2023-07-16T05:55:21;77142.75;;;-146.33
37414;BMP280;23279;46.472;30.760;2023-07-16T05:57:46;77140.72;;;-146.33
37414;BMP280;23279;46.472;30.760;2023-07-16T06:00:12;77126.47;;;-146.33
37414;BMP280;23279;46.472;30.760;2023-07-16T06:02:39;77185.47;;;-146.33
37414;BMP280;23279;46.472;30.760;2023-07-16T06:05:05;77203.78;;;-146.33
37414;BMP280;23279;46.472;30.760;2023-07-16T06:07:30;77250.56;;;-146.33
37414;BMP280;23279;46.472;30.760;2023-07-16T06:09:57;77216.00;;;-146.33
37414;BMP280;23279;46.472;30.760;2023-07-16T06:12:23;77197.69;;;-146.33
37414;BMP280;23279;46.472;30.760;2023-07-16T06:14:48;77195.66;;;-146.33
37414;BMP280;23279;46.472;30.760;2023-07-16T06:17:13;77177.34;;;-146.33
37414;BMP280;23279;46.472;30.760;2023-07-16T06:19:39;77124.44;;;-146.33
37414;BMP280;23279;46.472;30.760;2023-07-16T06:22:04;77120.38;;;-146.33
37414;BMP280;23279;46.472;30.760;2023-07-16T06:24:30;77114.28;;;-146.33
37414;BMP280;23279;46.472;30.760;2023-07-16T06:26:55;77112.25;;;-146.33
37414;BMP280;23279;46.472;30.760;2023-07-16T06:29:20;77124.44;;;-146.33
37414;BMP280;23279;46.472;30.760;2023-07-16T06:31:57;77132.59;;;-146.33
37414;BMP280;23279;46.472;30.760;2023-07-16T06:34:23;77089.88;;;-146.33
37414;BMP280;23279;46.472;30.760;2023-07-16T06:36:49;77104.09;;;-146.33
37414;BMP280;23279;46.472;30.760;2023-07-16T06:39:14;77093.94;;;-146.33
37414;BMP280;23279;46.472;30.760;2023-07-16T06:41:40;77100.03;;;-146.33
37414;BMP280;23279;46.472;30.760;2023-07-16T06:44:05;77128.50;;;-146.33
37414;BMP280;23279;46.472;30.760;2023-07-16T06:46:30;77120.38;;;-146.33
37414;BMP280;23279;46.472;30.760;2023-07-16T06:48:56;77104.09;;;-146.33
37414;BMP280;23279;46.472;30.760;2023-07-16T06:51:21;77087.84;;;-146.33
37414;BMP280;23279;46.472;30.760;2023-07-16T06:53:47;77089.88;;;-146.33
37414;BMP280;23279;46.472;30.760;2023-07-16T06:56:12;77091.91;;;-146.33
37414;BMP280;23279;46.472;30.760;2023-07-16T06:58:38;77079.69;;;-146.33
37414;BMP280;23279;46.472;30.760;2023-07-16T07:01:03;77067.50;;;-146.33
37414;BMP280;23279;46.472;30.760;2023-07-16T07:03:29;77043.06;;;-146.33
37414;BMP280;23279;46.472;30.760;2023-07-16T07:05:54;77026.81;;;-146.33
37414;BMP280;23279;46.472;30.760;2023-07-16T07:08:19;77022.75;;;-146.33
37414;BMP280;23279;46.472;30.760;2023-07-16T07:10:48;77018.66;;;-146.33
37414;BMP280;23279;46.472;30.760;2023-07-16T07:13:13;77006.47;;;-146.33
37414;BMP280;23279;46.472;30.760;2023-07-16T07:15:40;77026.81;;;-146.33
37414;BMP280;23279;46.472;30.760;2023-07-16T07:18:06;77041.03;;;-146.33
37414;BMP280;23279;46.472;30.760;2023-07-16T07:20:31;77014.59;;;-146.33
37414;BMP280;23279;46.472;30.760;2023-07-16T07:22:57;77002.41;;;-146.33
37414;BMP280;23279;46.472;30.760;2023-07-16T07:25:22;76984.09;;;-146.33
37414;BMP280;23279;46.472;30.760;2023-07-16T07:27:48;76988.16;;;-146.33
37414;BMP280;23279;46.472;30.760;2023-07-16T07:30:13;77010.53;;;-146.33
37414;BMP280;23279;46.472;30.760;2023-07-16T07:32:38;76998.31;;;-146.33
37414;BMP280;23279;46.472;30.760;2023-07-16T07:35:04;77010.53;;;-146.33
37414;BMP280;23279;46.472;30.760;2023-07-16T07:37:30;77059.34;;;-146.33
37414;BMP280;23279;46.472;30.760;2023-07-16T07:39:55;77014.59;;;-146.33
37414;BMP280;23279;46.472;30.760;2023-07-16T07:42:24;76990.19;;;-146.33
37414;BMP280;23279;46.472;30.760;2023-07-16T07:44:50;76986.13;;;-146.33
37414;BMP280;23279;46.472;30.760;2023-07-16T07:47:15;77008.50;;;-146.33
37414;BMP280;23279;46.472;30.760;2023-07-16T07:49:40;77039.00;;;-146.33
37414;BMP280;23279;46.472;30.760;2023-07-16T07:52:07;76998.31;;;-146.33
37414;BMP280;23279;46.472;30.760;2023-07-16T07:54:33;77002.41;;;-146.33
37414;BMP280;23279;46.472;30.760;2023-07-16T07:57:00;77053.25;;;-146.33
37414;BMP280;23279;46.472;30.760;2023-07-16T07:59:28;77012.56;;;-146.33
37414;BMP280;23279;46.472;30.760;2023-07-16T08:01:53;77069.53;;;-146.33
37414;BMP280;23279;46.472;30.760;2023-07-16T08:04:19;77063.41;;;-146.33
37414;BMP280;23279;46.472;30.760;2023-07-16T08:06:44;77014.59;;;-146.33
37414;BMP280;23279;46.472;30.760;2023-07-16T08:09:10;76994.25;;;-146.33
37414;BMP280;23279;46.472;30.760;2023-07-16T08:11:35;76990.19;;;-146.33
37414;BMP280;23279;46.472;30.760;2023-07-16T08:14:00;76990.19;;;-146.33
37414;BMP280;23279;46.472;30.760;2023-07-16T08:16:26;76961.72;;;-146.33
37414;BMP280;23279;46.472;30.760;2023-07-16T08:18:51;77000.34;;;-146.33
37414;BMP280;23279;46.472;30.760;2023-07-16T08:21:17;76996.28;;;-146.33
37414;BMP280;23279;46.472;30.760;2023-07-16T08:23:48;76982.06;;;-146.33
37414;BMP280;23279;46.472;30.760;2023-07-16T08:26:14;77006.47;;;-146.33
37414;BMP280;23279;46.472;30.760;2023-07-16T08:28:40;76973.91;;;-146.33
37414;BMP280;23279;46.472;30.760;2023-07-16T08:31:05;76933.22;;;-146.33
37414;BMP280;23279;46.472;30.760;2023-07-16T08:33:30;76969.84;;;-146.33
37414;BMP280;23279;46.472;30.760;2023-07-16T08:35:56;76967.81;;;-146.33
37414;BMP280;23279;46.472;30.760;2023-07-16T08:38:21;76941.38;;;-146.33
37414;BMP280;23279;46.472;30.760;2023-07-16T08:40:47;76957.66;;;-146.33
37414;BMP280;23279;46.472;30.760;2023-07-16T08:43:13;76955.59;;;-146.33
37414;BMP280;23279;46.472;30.760;2023-07-16T08:45:40;76980.03;;;-146.33
37414;BMP280;23279;46.472;30.760;2023-07-16T08:48:10;77036.97;;;-146.33
37414;BMP280;23279;46.472;30.760;2023-07-16T08:50:36;76969.84;;;-146.33
37414;BMP280;23279;46.472;30.760;2023-07-16T08:53:06;76965.78;;;-146.33
37414;BMP280;23279;46.472;30.760;2023-07-16T08:55:32;76941.38;;;-146.33
37414;BMP280;23279;46.472;30.760;2023-07-16T08:57:58;76921.03;;;-146.33
37414;BMP280;23279;46.472;30.760;2023-07-16T09:00:26;76923.06;;;-146.33
37414;BMP280;23279;46.472;30.760;2023-07-16T09:02:55;76949.50;;;-146.33
37414;BMP280;23279;46.472;30.760;2023-07-16T09:05:21;76957.66;;;-146.33
37414;BMP280;23279;46.472;30.760;2023-07-16T09:07:47;76961.72;;;-146.33
37414;BMP280;23279;46.472;30.760;2023-07-16T09:10:13;76994.25;;;-146.33
37414;BMP280;23279;46.472;30.760;2023-07-16T09:12:45;76965.78;;;-146.33
37414;BMP280;23279;46.472;30.760;2023-07-16T09:15:11;76975.94;;;-146.33
37414;BMP280;23279;46.472;30.760;2023-07-16T09:17:37;76971.88;;;-146.33
37414;BMP280;23279;46.472;30.760;2023-07-16T09:20:04;76975.94;;;-146.33
37414;BMP280;23279;46.472;30.760;2023-07-16T09:22:33;76939.34;;;-146.33
37414;BMP280;23279;46.472;30.760;2023-07-16T09:25:00;77043.06;;;-146.33
37414;BMP280;23279;46.472;30.760;2023-07-16T09:27:29;77034.94;;;-146.33
37414;BMP280;23279;46.472;30.760;2023-07-16T09:29:54;77061.38;;;-146.33
37414;BMP280;23279;46.472;30.760;2023-07-16T09:32:20;77083.75;;;-146.33
37414;BMP280;23279;46.472;30.760;2023-07-16T09:34:49;77098.00;;;-146.33
37414;BMP280;23279;46.472;30.760;2023-07-16T09:37:14;77067.50;;;-146.33
37414;BMP280;23279;46.472;30.760;2023-07-16T09:39:41;77043.06;;;-146.33
37414;BMP280;23279;46.472;30.760;2023-07-16T09:42:07;76998.31;;;-146.33
37414;BMP280;23279;46.472;30.760;2023-07-16T09:44:33;76977.97;;;-146.33
37414;BMP280;23279;46.472;30.760;2023-07-16T09:46:59;76977.97;;;-146.33
37414;BMP280;23279;46.472;30.760;2023-07-16T09:49:28;76982.06;;;-146.33
37414;BMP280;23279;46.472;30.760;2023-07-16T09:51:56;77008.50;;;-146.33
37414;BMP280;23279;46.472;30.760;2023-07-16T09:54:24;76990.19;;;-146.33
37414;BMP280;23279;46.472;30.760;2023-07-16T09:56:56;77028.84;;;-146.33
37414;BMP280;23279;46.472;30.760;2023-07-16T09:59:27;77032.91;;;-146.33
37414;BMP280;23279;46.472;30.760;2023-07-16T10:01:55;77059.34;;;-146.33
37414;BMP280;23279;46.472;30.760;2023-07-16T10:04:20;77069.53;;;-146.33
37414;BMP280;23279;46.472;30.760;2023-07-16T10:06:52;77091.91;;;-146.33
37414;BMP280;23279;46.472;30.760;2023-07-16T10:17:34;77055.28;;;-146.33
37414;BMP280;23279;46.472;30.760;2023-07-16T10:20:07;76998.31;;;-146.33
37414;BMP280;23279;46.472;30.760;2023-07-16T10:25:03;77022.75;;;-146.33
37414;BMP280;23279;46.472;30.760;2023-07-16T10:27:30;77091.91;;;-146.33
37414;BMP280;23279;46.472;30.760;2023-07-16T10:29:59;77163.09;;;-146.33
37414;BMP280;23279;46.472;30.760;2023-07-16T10:32:28;77128.50;;;-146.33
37414;BMP280;23279;46.472;30.760;2023-07-16T10:34:55;77159.03;;;-146.33
37414;BMP280;23279;46.472;30.760;2023-07-16T10:37:20;77108.19;;;-146.33
37414;BMP280;23279;46.472;30.760;2023-07-16T10:39:50;77059.34;;;-146.33
37414;BMP280;23279;46.472;30.760;2023-07-16T10:42:16;77108.19;;;-146.33
37414;BMP280;23279;46.472;30.760;2023-07-16T10:44:42;77071.56;;;-146.33
37414;BMP280;23279;46.472;30.760;2023-07-16T10:47:09;77051.22;;;-146.33
37414;BMP280;23279;46.472;30.760;2023-07-16T10:49:36;77006.47;;;-146.33
37414;BMP280;23279;46.472;30.760;2023-07-16T10:52:02;77077.66;;;-146.33
37414;BMP280;23279;46.472;30.760;2023-07-16T10:54:27;77130.56;;;-146.33
37414;BMP280;23279;46.472;30.760;2023-07-16T10:56:53;77161.06;;;-146.33
37414;BMP280;23279;46.472;30.760;2023-07-16T10:59:19;77201.75;;;-146.33
37414;BMP280;23279;46.472;30.760;2023-07-16T11:01:45;77205.81;;;-146.33
37414;BMP280;23279;46.472;30.760;2023-07-16T11:04:10;77173.28;;;-146.33
37414;BMP280;23279;46.472;30.760;2023-07-16T11:06:36;77193.63;;;-146.33
37414;BMP280;23279;46.472;30.760;2023-07-16T11:09:08;77144.78;;;-146.33
37414;BMP280;23279;46.472;30.760;2023-07-16T11:11:35;77169.19;;;-146.33
37414;BMP280;23279;46.472;30.760;2023-07-16T11:14:04;77171.25;;;-146.33
37414;BMP280;23279;46.472;30.760;2023-07-16T11:16:36;77248.53;;;-146.33
37414;BMP280;23279;46.472;30.760;2023-07-16T11:19:06;77228.19;;;-146.33
37414;BMP280;23279;46.472;30.760;2023-07-16T11:21:35;77213.97;;;-146.33
37414;BMP280;23279;46.472;30.760;2023-07-16T11:24:12;77173.28;;;-146.33
37414;BMP280;23279;46.472;30.760;2023-07-16T11:26:38;77220.06;;;-146.33
37414;BMP280;23279;46.472;30.760;2023-07-16T11:29:14;77236.34;;;-146.33
37414;BMP280;23279;46.472;30.760;2023-07-16T11:31:40;77185.47;;;-146.33
37414;BMP280;23279;46.472;30.760;2023-07-16T11:34:13;77175.31;;;-146.33
37414;BMP280;23279;46.472;30.760;2023-07-16T11:36:38;77161.06;;;-146.33
37414;BMP280;23279;46.472;30.760;2023-07-16T11:39:04;77114.28;;;-146.33
37414;BMP280;23279;46.472;30.760;2023-07-16T11:41:30;77071.56;;;-146.33
37414;BMP280;23279;46.472;30.760;2023-07-16T11:44:02;77051.22;;;-146.33
37414;BMP280;23279;46.472;30.760;2023-07-16T11:46:32;77069.53;;;-146.33
37414;BMP280;23279;46.472;30.760;2023-07-16T11:49:00;77106.13;;;-146.33
37414;BMP280;23279;46.472;30.760;2023-07-16T11:51:26;77132.59;;;-146.33
37414;BMP280;23279;46.472;30.760;2023-07-16T11:53:51;77108.19;;;-146.33
37414;BMP280;23279;46.472;30.760;2023-07-16T11:56:17;77159.03;;;-146.33
37414;BMP280;23279;46.472;30.760;2023-07-16T11:58:42;77152.94;;;-146.33
37414;BMP280;23279;46.472;30.760;2023-07-16T12:01:09;77134.63;;;-146.33
37414;BMP280;23279;46.472;30.760;2023-07-16T12:03:34;77104.09;;;-146.33
37414;BMP280;23279;46.472;30.760;2023-07-16T12:06:00;77063.41;;;-146.33
37414;BMP280;23279;46.472;30.760;2023-07-16T12:08:25;77039.00;;;-146.33
37414;BMP280;23279;46.472;30.760;2023-07-16T12:10:51;77063.41;;;-146.33
37414;BMP280;23279;46.472;30.760;2023-07-16T12:13:17;77104.09;;;-146.33
37414;BMP280;23279;46.472;30.760;2023-07-16T12:15:43;77112.25;;;-146.33
37414;BMP280;23279;46.472;30.760;2023-07-16T12:18:08;77093.94;;;-146.33
37414;BMP280;23279;46.472;30.760;2023-07-16T12:20:34;77104.09;;;-146.33
37414;BMP280;23279;46.472;30.760;2023-07-16T12:23:01;77091.91;;;-146.33
37414;BMP280;23279;46.472;30.760;2023-07-16T12:25:28;77059.34;;;-146.33
37414;BMP280;23279;46.472;30.760;2023-07-16T12:27:54;77018.66;;;-146.33
37414;BMP280;23279;46.472;30.760;2023-07-16T12:30:20;77018.66;;;-146.33
37414;BMP280;23279;46.472;30.760;2023-07-16T12:32:45;77057.31;;;-146.33
37414;BMP280;23279;46.472;30.760;2023-07-16T12:35:11;77000.34;;;-146.33
37414;BMP280;23279;46.472;30.760;2023-07-16T12:37:36;76998.31;;;-146.33
37414;BMP280;23279;46.472;30.760;2023-07-16T12:40:02;77030.88;;;-146.33
37414;BMP280;23279;46.472;30.760;2023-07-16T12:42:28;77041.03;;;-146.33
37414;BMP280;23279;46.472;30.760;2023-07-16T12:44:54;77049.19;;;-146.33
37414;BMP280;23279;46.472;30.760;2023-07-16T12:47:19;77053.25;;;-146.33
37414;BMP280;23279;46.472;30.760;2023-07-16T12:49:45;77083.75;;;-146.33
37414;BMP280;23279;46.472;30.760;2023-07-16T12:52:10;77100.03;;;-146.33
37414;BMP280;23279;46.472;30.760;2023-07-16T12:54:38;77065.44;;;-146.33
37414;BMP280;23279;46.472;30.760;2023-07-16T12:57:04;77008.50;;;-146.33
37414;BMP280;23279;46.472;30.760;2023-07-16T12:59:30;77047.16;;;-146.33
37414;BMP280;23279;46.472;30.760;2023-07-16T13:01:55;77006.47;;;-146.33
37414;BMP280;23279;46.472;30.760;2023-07-16T13:04:21;77022.75;;;-146.33
37414;BMP280;23279;46.472;30.760;2023-07-16T13:06:46;77008.50;;;-146.33
37414;BMP280;23279;46.472;30.760;2023-07-16T13:09:13;77030.88;;;-146.33
37414;BMP280;23279;46.472;30.760;2023-07-16T13:11:39;77036.97;;;-146.33
37414;BMP280;23279;46.472;30.760;2023-07-16T13:14:05;76990.19;;;-146.33
37414;BMP280;23279;46.472;30.760;2023-07-16T13:16:30;76998.31;;;-146.33
37414;BMP280;23279;46.472;30.760;2023-07-16T13:18:55;77002.41;;;-146.33
37414;BMP280;23279;46.472;30.760;2023-07-16T13:21:21;77030.88;;;-146.33
37414;BMP280;23279;46.472;30.760;2023-07-16T13:23:46;76977.97;;;-146.33
37414;BMP280;23279;46.472;30.760;2023-07-16T13:26:12;76980.03;;;-146.33
37414;BMP280;23279;46.472;30.760;2023-07-16T13:28:37;76965.78;;;-146.33
37414;BMP280;23279;46.472;30.760;2023-07-16T13:31:02;76953.56;;;-146.33
37414;BMP280;23279;46.472;30.760;2023-07-16T13:33:28;76921.03;;;-146.33
37414;BMP280;23279;46.472;30.760;2023-07-16T13:35:53;76943.41;;;-146.33
37414;BMP280;23279;46.472;30.760;2023-07-16T13:38:19;76986.13;;;-146.33
37414;BMP280;23279;46.472;30.760;2023-07-16T13:40:44;76990.19;;;-146.33
37414;BMP280;23279;46.472;30.760;2023-07-16T13:43:10;76977.97;;;-146.33
37414;BMP280;23279;46.472;30.760;2023-07-16T13:45:35;77026.81;;;-146.33
37414;BMP280;23279;46.472;30.760;2023-07-16T13:48:01;77043.06;;;-146.33